sensor_id;sensor_type;location;lat;lon;timestamp;noise_LAeq;noise_LA_min;noise_LA_max;noise_LA01;noise_LA95
61270;Laerm;47150;53.032;8.960;2023-01-24T00:00:34;38.93;37.76;40.63;;
61270;Laerm;47150;53.032;8.960;2023-01-24T00:03:01;38.94;37.59;39.95;;
61270;Laerm;47150;53.032;8.960;2023-01-24T00:05:26;38.95;37.56;40.18;;
61270;Laerm;47150;53.032;8.960;2023-01-24T00:07:52;38.97;37.59;40.10;;
61270;Laerm;47150;53.032;8.960;2023-01-24T00:10:17;38.98;37.58;40.26;;
61270;Laerm;47150;53.032;8.960;2023-01-24T00:12:43;38.99;37.82;40.34;;
61270;Laerm;47150;53.032;8.960;2023-01-24T00:15:09;38.97;37.51;40.27;;
61270;Laerm;47150;53.032;8.960;2023-01-24T00:17:35;38.99;37.52;40.13;;
61270;Laerm;47150;53.032;8.960;2023-01-24T00:20:02;39.00;37.59;40.24;;
61270;Laerm;47150;53.032;8.960;2023-01-24T00:22:30;39.01;37.69;40.25;;
61270;Laerm;47150;53.032;8.960;2023-01-24T00:24:55;39.01;37.86;40.14;;
61270;Laerm;47150;53.032;8.960;2023-01-24T00:27:21;39.01;37.65;40.12;;
61270;Laerm;47150;53.032;8.960;2023-01-24T00:29:46;39.01;37.61;40.23;;
61270;Laerm;47150;53.032;8.960;2023-01-24T00:32:12;39.00;37.52;40.29;;
61270;Laerm;47150;53.032;8.960;2023-01-24T00:34:37;39.00;37.79;40.46;;
61270;Laerm;47150;53.032;8.960;2023-01-24T00:37:03;38.98;37.67;40.16;;
61270;Laerm;47150;53.032;8.960;2023-01-24T00:39:28;38.99;37.64;40.41;;
61270;Laerm;47150;53.032;8.960;2023-01-24T00:41:54;39.01;37.75;40.17;;
61270;Laerm;47150;53.032;8.960;2023-01-24T00:44:19;39.02;37.63;40.22;;
61270;Laerm;47150;53.032;8.960;2023-01-24T00:46:45;39.04;37.71;40.45;;
61270;Laerm;47150;53.032;8.960;2023-01-24T00:49:10;39.04;37.72;40.21;;
61270;Laerm;47150;53.032;8.960;2023-01-24T00:51:36;39.04;37.54;40.25;;
61270;Laerm;47150;53.032;8.960;2023-01-24T00:54:01;39.02;37.74;40.24;;
61270;Laerm;47150;53.032;8.960;2023-01-24T00:56:27;39.00;37.55;40.33;;
61270;Laerm;47150;53.032;8.960;2023-01-24T00:58:53;39.01;37.78;40.30;;
61270;Laerm;47150;53.032;8.960;2023-01-24T01:01:20;39.01;37.41;40.16;;
61270;Laerm;47150;53.032;8.960;2023-01-24T01:03:45;39.00;37.56;40.13;;
61270;Laerm;47150;53.032;8.960;2023-01-24T01:06:16;38.99;37.20;40.34;;
61270;Laerm;47150;53.032;8.960;2023-01-24T01:08:42;38.97;37.64;40.26;;
61270;Laerm;47150;53.032;8.960;2023-01-24T01:11:08;38.96;37.70;40.09;;
61270;Laerm;47150;53.032;8.960;2023-01-24T01:13:34;38.97;37.52;40.29;;
61270;Laerm;47150;53.032;8.960;2023-01-24T01:16:11;38.96;37.73;40.24;;
61270;Laerm;47150;53.032;8.960;2023-01-24T01:18:37;38.95;37.50;40.28;;
61270;Laerm;47150;53.032;8.960;2023-01-24T01:21:04;38.95;37.67;40.18;;
61270;Laerm;47150;53.032;8.960;2023-01-24T01:23:30;38.96;37.72;40.19;;
61270;Laerm;47150;53.032;8.960;2023-01-24T01:26:01;38.97;37.78;40.33;;
61270;Laerm;47150;53.032;8.960;2023-01-24T01:28:28;38.96;37.60;40.13;;
61270;Laerm;47150;53.032;8.960;2023-01-24T01:30:54;38.96;37.61;40.11;;
61270;Laerm;47150;53.032;8.960;2023-01-24T01:33:21;38.95;37.68;40.19;;
61270;Laerm;47150;53.032;8.960;2023-01-24T01:35:48;38.95;37.14;40.31;;
61270;Laerm;47150;53.032;8.960;2023-01-24T01:38:15;38.95;37.67;40.28;;
61270;Laerm;47150;53.032;8.960;2023-01-24T01:40:41;38.96;37.54;40.06;;
61270;Laerm;47150;53.032;8.960;2023-01-24T01:43:17;38.96;37.63;40.12;;
61270;Laerm;47150;53.032;8.960;2023-01-24T01:45:48;38.94;37.50;40.29;;
61270;Laerm;47150;53.032;8.960;2023-01-24T01:48:42;38.95;37.71;40.46;;
61270;Laerm;47150;53.032;8.960;2023-01-24T01:51:21;38.95;37.64;40.25;;
61270;Laerm;47150;53.032;8.960;2023-01-24T01:56:32;38.95;37.54;40.14;;
61270;Laerm;47150;53.032;8.960;2023-01-24T01:59:04;38.94;37.72;40.12;;
61270;Laerm;47150;53.032;8.960;2023-01-24T02:01:33;38.95;37.57;40.41;;
61270;Laerm;47150;53.032;8.960;2023-01-24T02:04:09;38.94;37.67;40.09;;
61270;Laerm;47150;53.032;8.960;2023-01-24T02:07:00;38.95;37.60;40.23;;
61270;Laerm;47150;53.032;8.960;2023-01-24T02:09:33;38.96;37.84;40.04;;
61270;Laerm;47150;53.032;8.960;2023-01-24T02:12:05;38.96;37.65;40.36;;
61270;Laerm;47150;53.032;8.960;2023-01-24T02:14:34;38.95;37.37;40.33;;
61270;Laerm;47150;53.032;8.960;2023-01-24T02:17:21;38.96;37.66;40.28;;
61270;Laerm;47150;53.032;8.960;2023-01-24T02:27:52;38.96;37.52;40.35;;
61270;Laerm;47150;53.032;8.960;2023-01-24T02:30:18;38.97;37.53;40.09;;
61270;Laerm;47150;53.032;8.960;2023-01-24T02:32:43;38.96;37.68;40.37;;
61270;Laerm;47150;53.032;8.960;2023-01-24T02:35:42;38.96;37.72;40.20;;
61270;Laerm;47150;53.032;8.960;2023-01-24T02:38:21;38.96;37.52;40.14;;
61270;Laerm;47150;53.032;8.960;2023-01-24T02:40:53;38.97;37.33;40.23;;
61270;Laerm;47150;53.032;8.960;2023-01-24T02:43:25;38.95;37.56;40.12;;
61270;Laerm;47150;53.032;8.960;2023-01-24T02:45:53;38.96;37.63;40.18;;
61270;Laerm;47150;53.032;8.960;2023-01-24T02:48:18;38.96;37.66;40.30;;
61270;Laerm;47150;53.032;8.960;2023-01-24T02:50:44;38.96;37.76;40.21;;
61270;Laerm;47150;53.032;8.960;2023-01-24T02:53:28;38.95;37.52;40.54;;
61270;Laerm;47150;53.032;8.960;2023-01-24T02:55:58;38.95;37.54;40.08;;
61270;Laerm;47150;53.032;8.960;2023-01-24T02:58:43;38.95;37.58;40.32;;
61270;Laerm;47150;53.032;8.960;2023-01-24T03:01:09;38.94;37.57;40.10;;
61270;Laerm;47150;53.032;8.960;2023-01-24T03:03:34;38.94;37.46;40.33;;
61270;Laerm;47150;53.032;8.960;2023-01-24T03:06:00;38.94;37.28;40.22;;
61270;Laerm;47150;53.032;8.960;2023-01-24T03:08:31;38.93;37.83;40.17;;
61270;Laerm;47150;53.032;8.960;2023-01-24T03:10:57;38.93;37.64;40.51;;
61270;Laerm;47150;53.032;8.960;2023-01-24T03:13:24;38.91;37.52;40.11;;
61270;Laerm;47150;53.032;8.960;2023-01-24T03:16:09;38.90;37.51;40.25;;
61270;Laerm;47150;53.032;8.960;2023-01-24T03:18:53;38.91;37.50;40.08;;
61270;Laerm;47150;53.032;8.960;2023-01-24T03:21:38;38.92;37.76;40.27;;
61270;Laerm;47150;53.032;8.960;2023-01-24T03:24:23;38.91;37.59;40.05;;
61270;Laerm;47150;53.032;8.960;2023-01-24T03:27:07;38.92;37.65;40.17;;
61270;Laerm;47150;53.032;8.960;2023-01-24T03:29:52;38.92;37.54;40.31;;
61270;Laerm;47150;53.032;8.960;2023-01-24T03:32:36;38.90;37.68;40.21;;
61270;Laerm;47150;53.032;8.960;2023-01-24T03:35:20;38.91;37.47;40.28;;
61270;Laerm;47150;53.032;8.960;2023-01-24T03:37:46;38.89;37.54;40.13;;
61270;Laerm;47150;53.032;8.960;2023-01-24T03:40:30;38.89;37.66;40.16;;
61270;Laerm;47150;53.032;8.960;2023-01-24T03:42:56;38.89;37.62;40.18;;
61270;Laerm;47150;53.032;8.960;2023-01-24T03:45:27;38.89;37.62;40.27;;
61270;Laerm;47150;53.032;8.960;2023-01-24T03:47:57;38.90;37.65;40.28;;
61270;Laerm;47150;53.032;8.960;2023-01-24T03:50:31;38.89;37.63;40.17;;
61270;Laerm;47150;53.032;8.960;2023-01-24T03:53:17;38.89;37.54;40.12;;
61270;Laerm;47150;53.032;8.960;2023-01-24T03:55:44;38.90;37.57;40.19;;
61270;Laerm;47150;53.032;8.960;2023-01-24T03:58:10;38.89;37.42;40.09;;
61270;Laerm;47150;53.032;8.960;2023-01-24T04:00:37;38.88;37.61;40.06;;
61270;Laerm;47150;53.032;8.960;2023-01-24T04:03:03;38.88;37.44;40.38;;
61270;Laerm;47150;53.032;8.960;2023-01-24T04:05:32;38.88;37.69;40.15;;
61270;Laerm;47150;53.032;8.960;2023-01-24T04:07:57;38.88;37.65;40.14;;
61270;Laerm;47150;53.032;8.960;2023-01-24T04:10:23;38.87;37.02;40.09;;
61270;Laerm;47150;53.032;8.960;2023-01-24T04:12:49;38.86;37.15;40.09;;
61270;Laerm;47150;53.032;8.960;2023-01-24T04:15:27;38.86;37.49;40.00;;
61270;Laerm;47150;53.032;8.960;2023-01-24T04:18:00;38.86;37.60;40.32;;
61270;Laerm;47150;53.032;8.960;2023-01-24T04:20:29;38.86;37.22;39.99;;
61270;Laerm;47150;53.032;8.960;2023-01-24T04:22:55;38.87;37.59;40.08;;
61270;Laerm;47150;53.032;8.960;2023-01-24T04:25:21;38.87;37.21;40.12;;
61270;Laerm;47150;53.032;8.960;2023-01-24T04:27:47;38.87;37.54;40.18;;
61270;Laerm;47150;53.032;8.960;2023-01-24T04:30:15;38.87;37.54;40.10;;
61270;Laerm;47150;53.032;8.960;2023-01-24T04:32:42;38.85;37.49;40.06;;
61270;Laerm;47150;53.032;8.960;2023-01-24T04:35:19;38.84;37.32;40.14;;
61270;Laerm;47150;53.032;8.960;2023-01-24T04:37:44;38.83;37.55;39.90;;
61270;Laerm;47150;53.032;8.960;2023-01-24T04:40:11;38.83;37.26;39.98;;
61270;Laerm;47150;53.032;8.960;2023-01-24T04:42:40;38.81;37.45;40.26;;
61270;Laerm;47150;53.032;8.960;2023-01-24T04:45:07;38.80;37.54;40.11;;
61270;Laerm;47150;53.032;8.960;2023-01-24T04:47:32;38.78;37.36;39.95;;
61270;Laerm;47150;53.032;8.960;2023-01-24T04:49:58;38.77;37.39;40.03;;
61270;Laerm;47150;53.032;8.960;2023-01-24T04:52:24;38.76;37.41;40.18;;
61270;Laerm;47150;53.032;8.960;2023-01-24T04:54:49;38.76;37.39;40.06;;
61270;Laerm;47150;53.032;8.960;2023-01-24T04:57:18;38.76;37.51;40.08;;
61270;Laerm;47150;53.032;8.960;2023-01-24T04:59:44;38.76;37.35;39.98;;
61270;Laerm;47150;53.032;8.960;2023-01-24T05:02:09;38.77;37.37;40.09;;
61270;Laerm;47150;53.032;8.960;2023-01-24T05:04:35;38.76;37.33;39.88;;
61270;Laerm;47150;53.032;8.960;2023-01-24T05:07:01;38.75;37.20;39.89;;
61270;Laerm;47150;53.032;8.960;2023-01-24T05:09:27;38.75;37.29;40.13;;
61270;Laerm;47150;53.032;8.960;2023-01-24T05:11:52;38.75;37.34;40.09;;
61270;Laerm;47150;53.032;8.960;2023-01-24T05:14:18;38.76;37.54;39.97;;
61270;Laerm;47150;53.032;8.960;2023-01-24T05:16:43;38.75;37.30;40.25;;
61270;Laerm;47150;53.032;8.960;2023-01-24T05:19:10;38.76;37.46;39.95;;
61270;Laerm;47150;53.032;8.960;2023-01-24T05:21:35;38.77;37.29;40.04;;
61270;Laerm;47150;53.032;8.960;2023-01-24T05:24:01;38.77;37.28;40.03;;
61270;Laerm;47150;53.032;8.960;2023-01-24T05:26:27;38.75;37.53;39.90;;
61270;Laerm;47150;53.032;8.960;2023-01-24T05:28:53;38.73;37.35;40.06;;
61270;Laerm;47150;53.032;8.960;2023-01-24T05:31:20;38.75;37.41;40.21;;
61270;Laerm;47150;53.032;8.960;2023-01-24T05:33:46;38.76;37.23;39.85;;
61270;Laerm;47150;53.032;8.960;2023-01-24T05:36:21;38.76;37.51;40.00;;
61270;Laerm;47150;53.032;8.960;2023-01-24T05:38:48;38.76;37.28;39.98;;
61270;Laerm;47150;53.032;8.960;2023-01-24T05:41:16;38.77;37.40;40.06;;
61270;Laerm;47150;53.032;8.960;2023-01-24T05:43:44;38.75;37.34;40.13;;
61270;Laerm;47150;53.032;8.960;2023-01-24T05:46:16;38.74;37.34;40.16;;
61270;Laerm;47150;53.032;8.960;2023-01-24T05:48:43;38.75;37.38;39.93;;
61270;Laerm;47150;53.032;8.960;2023-01-24T05:51:12;38.76;37.62;39.92;;
61270;Laerm;47150;53.032;8.960;2023-01-24T05:53:40;38.76;37.28;40.11;;
61270;Laerm;47150;53.032;8.960;2023-01-24T05:56:12;38.77;37.29;39.95;;
61270;Laerm;47150;53.032;8.960;2023-01-24T05:58:40;38.76;37.52;39.93;;
61270;Laerm;47150;53.032;8.960;2023-01-24T06:01:12;38.77;37.53;40.11;;
61270;Laerm;47150;53.032;8.960;2023-01-24T06:03:40;38.78;37.30;40.05;;
61270;Laerm;47150;53.032;8.960;2023-01-24T06:06:08;38.79;37.53;40.12;;
61270;Laerm;47150;53.032;8.960;2023-01-24T06:08:34;38.78;37.25;40.32;;
61270;Laerm;47150;53.032;8.960;2023-01-24T06:11:12;38.78;37.44;39.97;;
61270;Laerm;47150;53.032;8.960;2023-01-24T06:13:38;38.80;37.34;40.16;;
61270;Laerm;47150;53.032;8.960;2023-01-24T06:16:15;38.78;37.33;40.09;;
61270;Laerm;47150;53.032;8.960;2023-01-24T06:18:41;38.77;37.45;40.24;;
61270;Laerm;47150;53.032;8.960;2023-01-24T06:23:44;38.78;37.17;40.08;;
61270;Laerm;47150;53.032;8.960;2023-01-24T06:26:10;38.77;37.19;40.24;;
61270;Laerm;47150;53.032;8.960;2023-01-24T06:28:38;38.76;37.35;40.03;;
61270;Laerm;47150;53.032;8.960;2023-01-24T06:31:18;38.76;36.92;39.99;;
61270;Laerm;47150;53.032;8.960;2023-01-24T06:39:52;38.77;37.31;40.11;;
61270;Laerm;47150;53.032;8.960;2023-01-24T06:42:20;38.77;37.56;40.05;;
61270;Laerm;47150;53.032;8.960;2023-01-24T06:44:47;38.77;37.42;39.99;;
61270;Laerm;47150;53.032;8.960;2023-01-24T06:47:13;38.77;37.46;40.06;;
61270;Laerm;47150;53.032;8.960;2023-01-24T06:49:40;38.78;37.24;40.16;;
61270;Laerm;47150;53.032;8.960;2023-01-24T06:52:06;38.78;37.36;39.98;;
61270;Laerm;47150;53.032;8.960;2023-01-24T06:54:33;38.79;37.25;40.00;;
61270;Laerm;47150;53.032;8.960;2023-01-24T06:57:00;38.79;37.38;39.99;;
61270;Laerm;47150;53.032;8.960;2023-01-24T06:59:26;38.79;37.52;40.07;;
61270;Laerm;47150;53.032;8.960;2023-01-24T07:01:51;38.79;37.42;40.17;;
61270;Laerm;47150;53.032;8.960;2023-01-24T07:04:18;38.80;37.53;40.09;;
61270;Laerm;47150;53.032;8.960;2023-01-24T07:06:44;38.79;37.43;39.96;;
61270;Laerm;47150;53.032;8.960;2023-01-24T07:09:10;38.80;37.53;39.97;;
61270;Laerm;47150;53.032;8.960;2023-01-24T07:11:36;38.78;37.46;39.99;;
61270;Laerm;47150;53.032;8.960;2023-01-24T07:14:02;38.81;37.60;40.19;;
61270;Laerm;47150;53.032;8.960;2023-01-24T07:16:28;38.79;37.38;40.03;;
61270;Laerm;47150;53.032;8.960;2023-01-24T07:18:54;38.79;37.27;40.10;;
61270;Laerm;47150;53.032;8.960;2023-01-24T07:21:20;38.77;37.39;39.92;;
61270;Laerm;47150;53.032;8.960;2023-01-24T07:23:48;38.76;37.54;40.05;;
61270;Laerm;47150;53.032;8.960;2023-01-24T07:26:14;38.74;37.57;40.06;;
61270;Laerm;47150;53.032;8.960;2023-01-24T07:28:41;38.74;37.15;39.93;;
61270;Laerm;47150;53.032;8.960;2023-01-24T07:31:07;38.74;37.31;39.96;;
61270;Laerm;47150;53.032;8.960;2023-01-24T07:33:35;38.75;37.36;39.93;;
61270;Laerm;47150;53.032;8.960;2023-01-24T07:36:00;38.74;37.38;39.98;;
61270;Laerm;47150;53.032;8.960;2023-01-24T07:38:26;38.75;36.87;39.93;;
61270;Laerm;47150;53.032;8.960;2023-01-24T07:40:52;38.75;37.48;39.95;;
61270;Laerm;47150;53.032;8.960;2023-01-24T07:43:18;38.75;37.20;40.01;;
61270;Laerm;47150;53.032;8.960;2023-01-24T07:45:46;38.76;37.34;39.92;;
61270;Laerm;47150;53.032;8.960;2023-01-24T07:48:11;38.76;37.40;39.98;;
61270;Laerm;47150;53.032;8.960;2023-01-24T07:50:37;38.75;37.49;40.04;;
61270;Laerm;47150;53.032;8.960;2023-01-24T07:53:03;38.75;37.44;39.81;;
61270;Laerm;47150;53.032;8.960;2023-01-24T07:55:28;38.74;37.19;40.15;;
61270;Laerm;47150;53.032;8.960;2023-01-24T07:57:59;38.74;37.40;40.08;;
61270;Laerm;47150;53.032;8.960;2023-01-24T08:00:26;38.74;37.35;40.08;;
61270;Laerm;47150;53.032;8.960;2023-01-24T08:02:51;38.72;37.47;39.97;;
61270;Laerm;47150;53.032;8.960;2023-01-24T08:05:17;38.72;37.46;39.89;;
61270;Laerm;47150;53.032;8.960;2023-01-24T08:07:42;38.73;37.44;39.96;;
61270;Laerm;47150;53.032;8.960;2023-01-24T08:10:08;38.72;37.41;39.86;;
61270;Laerm;47150;53.032;8.960;2023-01-24T08:12:34;38.70;37.04;40.14;;
61270;Laerm;47150;53.032;8.960;2023-01-24T08:14:59;38.71;37.26;39.93;;
61270;Laerm;47150;53.032;8.960;2023-01-24T08:17:25;38.72;37.36;39.88;;
61270;Laerm;47150;53.032;8.960;2023-01-24T08:19:50;38.73;37.47;40.11;;
61270;Laerm;47150;53.032;8.960;2023-01-24T08:22:16;38.73;37.13;39.87;;
61270;Laerm;47150;53.032;8.960;2023-01-24T08:24:41;38.75;37.25;39.94;;
61270;Laerm;47150;53.032;8.960;2023-01-24T08:27:07;38.72;37.28;40.11;;
61270;Laerm;47150;53.032;8.960;2023-01-24T08:29:32;38.73;37.31;40.09;;
61270;Laerm;47150;53.032;8.960;2023-01-24T08:31:58;38.73;36.93;39.93;;
61270;Laerm;47150;53.032;8.960;2023-01-24T08:34:24;38.72;37.31;39.91;;
61270;Laerm;47150;53.032;8.960;2023-01-24T08:36:50;38.72;37.39;40.06;;
61270;Laerm;47150;53.032;8.960;2023-01-24T08:39:15;38.72;37.40;39.89;;
61270;Laerm;47150;53.032;8.960;2023-01-24T08:41:42;38.74;37.22;40.00;;
61270;Laerm;47150;53.032;8.960;2023-01-24T08:44:13;38.74;37.25;40.00;;
61270;Laerm;47150;53.032;8.960;2023-01-24T08:46:39;38.72;37.28;39.90;;
61270;Laerm;47150;53.032;8.960;2023-01-24T08:49:05;38.71;37.01;39.94;;
61270;Laerm;47150;53.032;8.960;2023-01-24T08:51:30;38.73;37.22;40.02;;
61270;Laerm;47150;53.032;8.960;2023-01-24T08:53:56;38.74;37.28;40.02;;
61270;Laerm;47150;53.032;8.960;2023-01-24T08:56:21;38.75;37.54;40.12;;
61270;Laerm;47150;53.032;8.960;2023-01-24T08:58:47;38.73;37.47;40.06;;
61270;Laerm;47150;53.032;8.960;2023-01-24T09:01:12;38.74;37.38;40.04;;
61270;Laerm;47150;53.032;8.960;2023-01-24T09:03:38;38.74;37.20;39.82;;
61270;Laerm;47150;53.032;8.960;2023-01-24T09:06:05;38.75;37.55;40.11;;
61270;Laerm;47150;53.032;8.960;2023-01-24T09:08:31;38.76;37.45;40.01;;
61270;Laerm;47150;53.032;8.960;2023-01-24T09:10:58;38.75;37.33;40.00;;
61270;Laerm;47150;53.032;8.960;2023-01-24T09:13:25;38.74;37.25;39.83;;
61270;Laerm;47150;53.032;8.960;2023-01-24T09:15:50;38.72;37.21;39.96;;
61270;Laerm;47150;53.032;8.960;2023-01-24T09:18:16;38.71;37.26;40.14;;
61270;Laerm;47150;53.032;8.960;2023-01-24T09:20:42;38.72;37.38;40.07;;
61270;Laerm;47150;53.032;8.960;2023-01-24T09:23:13;38.72;37.32;40.02;;
61270;Laerm;47150;53.032;8.960;2023-01-24T09:25:49;38.72;37.31;39.97;;
61270;Laerm;47150;53.032;8.960;2023-01-24T09:28:15;38.72;37.49;40.30;;
61270;Laerm;47150;53.032;8.960;2023-01-24T09:30:43;38.72;37.34;40.07;;
61270;Laerm;47150;53.032;8.960;2023-01-24T09:33:09;38.69;37.40;39.92;;
61270;Laerm;47150;53.032;8.960;2023-01-24T09:35:34;38.69;37.47;40.11;;
61270;Laerm;47150;53.032;8.960;2023-01-24T09:38:00;38.70;37.17;40.04;;
61270;Laerm;47150;53.032;8.960;2023-01-24T09:43:50;38.71;37.38;39.92;;
61270;Laerm;47150;53.032;8.960;2023-01-24T09:46:44;38.71;37.38;39.87;;
61270;Laerm;47150;53.032;8.960;2023-01-24T09:49:47;38.70;37.26;39.96;;
61270;Laerm;47150;53.032;8.960;2023-01-24T09:52:34;38.69;37.27;39.78;;
61270;Laerm;47150;53.032;8.960;2023-01-24T09:55:25;38.68;37.24;39.86;;
61270;Laerm;47150;53.032;8.960;2023-01-24T10:00:34;38.69;37.45;40.03;;
61270;Laerm;47150;53.032;8.960;2023-01-24T10:03:01;38.67;37.27;39.90;;
61270;Laerm;47150;53.032;8.960;2023-01-24T10:05:55;38.67;37.28;39.87;;
61270;Laerm;47150;53.032;8.960;2023-01-24T10:17:50;38.65;37.26;39.77;;
61270;Laerm;47150;53.032;8.960;2023-01-24T10:20:33;38.65;37.39;39.78;;
61270;Laerm;47150;53.032;8.960;2023-01-24T10:26:11;38.64;37.32;39.97;;
61270;Laerm;47150;53.032;8.960;2023-01-24T10:28:49;38.65;37.44;39.91;;
61270;Laerm;47150;53.032;8.960;2023-01-24T10:31:26;38.65;37.35;39.94;;
61270;Laerm;47150;53.032;8.960;2023-01-24T10:33:59;38.65;36.95;39.81;;
61270;Laerm;47150;53.032;8.960;2023-01-24T10:36:46;38.66;37.22;39.96;;
61270;Laerm;47150;53.032;8.960;2023-01-24T10:39:14;38.64;37.19;40.13;;
61270;Laerm;47150;53.032;8.960;2023-01-24T10:41:40;38.62;37.25;39.96;;
61270;Laerm;47150;53.032;8.960;2023-01-24T10:44:15;38.63;36.92;40.01;;
61270;Laerm;47150;53.032;8.960;2023-01-24T10:47:18;38.63;36.97;39.88;;
61270;Laerm;47150;53.032;8.960;2023-01-24T10:50:17;38.63;37.41;40.00;;
61270;Laerm;47150;53.032;8.960;2023-01-24T10:52:44;38.65;37.29;39.86;;
61270;Laerm;47150;53.032;8.960;2023-01-24T10:55:35;38.66;37.31;39.88;;
61270;Laerm;47150;53.032;8.960;2023-01-24T10:58:20;38.66;36.98;39.93;;
61270;Laerm;47150;53.032;8.960;2023-01-24T11:00:59;38.66;37.04;40.16;;
61270;Laerm;47150;53.032;8.960;2023-01-24T11:03:31;38.66;37.48;39.75;;
61270;Laerm;47150;53.032;8.960;2023-01-24T11:06:02;38.66;37.16;40.17;;
61270;Laerm;47150;53.032;8.960;2023-01-24T11:08:36;38.67;37.24;39.98;;
61270;Laerm;47150;53.032;8.960;2023-01-24T11:11:17;38.64;37.03;39.82;;
61270;Laerm;47150;53.032;8.960;2023-01-24T11:13:45;38.64;37.15;39.82;;
61270;Laerm;47150;53.032;8.960;2023-01-24T11:18:58;38.66;37.40;39.81;;
61270;Laerm;47150;53.032;8.960;2023-01-24T11:21:26;38.64;37.10;39.96;;
61270;Laerm;47150;53.032;8.960;2023-01-24T11:26:35;38.66;37.34;40.00;;
61270;Laerm;47150;53.032;8.960;2023-01-24T11:29:05;38.66;37.37;39.83;;
61270;Laerm;47150;53.032;8.960;2023-01-24T11:31:48;38.65;37.40;39.98;;
61270;Laerm;47150;53.032;8.960;2023-01-24T11:34:39;38.62;37.26;39.95;;
61270;Laerm;47150;53.032;8.960;2023-01-24T11:37:56;38.62;37.13;39.89;;
61270;Laerm;47150;53.032;8.960;2023-01-24T11:40:58;38.62;37.36;40.16;;
61270;Laerm;47150;53.032;8.960;2023-01-24T11:57:40;38.63;37.15;40.13;;
61270;Laerm;47150;53.032;8.960;2023-01-24T12:07:36;38.62;37.06;39.80;;
61270;Laerm;47150;53.032;8.960;2023-01-24T12:10:28;38.61;37.09;39.88;;
61270;Laerm;47150;53.032;8.960;2023-01-24T12:16:10;38.62;37.35;39.95;;
61270;Laerm;47150;53.032;8.960;2023-01-24T12:21:14;38.64;37.26;39.87;;
61270;Laerm;47150;53.032;8.960;2023-01-24T12:24:02;38.65;37.34;40.07;;
61270;Laerm;47150;53.032;8.960;2023-01-24T12:26:39;38.64;37.33;39.87;;
61270;Laerm;47150;53.032;8.960;2023-01-24T12:29:24;38.64;37.21;39.98;;
61270;Laerm;47150;53.032;8.960;2023-01-24T12:32:22;38.64;37.27;39.95;;
61270;Laerm;47150;53.032;8.960;2023-01-24T12:43:12;38.63;37.28;39.94;;
61270;Laerm;47150;53.032;8.960;2023-01-24T12:46:11;38.65;37.04;39.92;;
61270;Laerm;47150;53.032;8.960;2023-01-24T12:54:48;38.63;37.19;39.91;;
61270;Laerm;47150;53.032;8.960;2023-01-24T12:57:32;38.62;37.12;40.11;;
61270;Laerm;47150;53.032;8.960;2023-01-24T13:00:08;38.62;37.07;40.07;;
61270;Laerm;47150;53.032;8.960;2023-01-24T13:05:42;38.61;37.19;40.00;;
61270;Laerm;47150;53.032;8.960;2023-01-24T13:11:22;38.62;37.11;39.83;;
61270;Laerm;47150;53.032;8.960;2023-01-24T13:14:22;38.63;37.14;39.85;;
61270;Laerm;47150;53.032;8.960;2023-01-24T13:23:13;38.63;37.30;39.83;;
61270;Laerm;47150;53.032;8.960;2023-01-24T13:29:05;38.64;37.22;39.98;;
61270;Laerm;47150;53.032;8.960;2023-01-24T13:32:11;38.62;37.32;39.86;;
61270;Laerm;47150;53.032;8.960;2023-01-24T13:34:46;38.63;37.25;39.79;;
61270;Laerm;47150;53.032;8.960;2023-01-24T13:37:34;38.64;37.33;39.93;;
61270;Laerm;47150;53.032;8.960;2023-01-24T13:40:18;38.63;37.47;40.04;;
61270;Laerm;47150;53.032;8.960;2023-01-24T13:42:46;38.64;37.06;39.93;;
61270;Laerm;47150;53.032;8.960;2023-01-24T13:47:52;38.64;37.23;39.88;;
61270;Laerm;47150;53.032;8.960;2023-01-24T13:50:26;38.64;37.18;39.97;;
61270;Laerm;47150;53.032;8.960;2023-01-24T13:52:59;38.66;37.26;39.86;;
61270;Laerm;47150;53.032;8.960;2023-01-24T14:03:28;38.66;37.00;40.00;;
61270;Laerm;47150;53.032;8.960;2023-01-24T14:18:58;38.68;37.19;40.07;;
61270;Laerm;47150;53.032;8.960;2023-01-24T14:21:51;38.67;37.10;40.00;;
61270;Laerm;47150;53.032;8.960;2023-01-24T14:24:56;38.67;37.27;39.83;;
61270;Laerm;47150;53.032;8.960;2023-01-24T14:27:36;38.67;37.32;40.03;;
61270;Laerm;47150;53.032;8.960;2023-01-24T14:30:30;38.67;37.33;40.07;;
61270;Laerm;47150;53.032;8.960;2023-01-24T14:33:04;38.67;37.27;40.13;;
61270;Laerm;47150;53.032;8.960;2023-01-24T14:35:53;38.68;37.18;39.90;;
61270;Laerm;47150;53.032;8.960;2023-01-24T14:38:20;38.68;37.38;39.77;;
61270;Laerm;47150;53.032;8.960;2023-01-24T14:40:54;38.67;37.33;40.02;;
61270;Laerm;47150;53.032;8.960;2023-01-24T14:43:24;38.67;37.28;39.97;;
61270;Laerm;47150;53.032;8.960;2023-01-24T14:45:53;38.68;37.34;39.84;;
61270;Laerm;47150;53.032;8.960;2023-01-24T14:48:24;38.67;37.18;39.92;;
61270;Laerm;47150;53.032;8.960;2023-01-24T14:51:06;38.68;37.37;39.85;;
61270;Laerm;47150;53.032;8.960;2023-01-24T14:53:34;38.67;37.43;39.89;;
61270;Laerm;47150;53.032;8.960;2023-01-24T14:56:08;38.68;37.14;39.97;;
61270;Laerm;47150;53.032;8.960;2023-01-24T14:58:34;38.69;37.40;39.84;;
61270;Laerm;47150;53.032;8.960;2023-01-24T15:01:01;38.69;37.37;39.99;;
61270;Laerm;47150;53.032;8.960;2023-01-24T15:03:31;38.69;37.35;39.92;;
61270;Laerm;47150;53.032;8.960;2023-01-24T15:06:06;38.69;37.35;39.96;;
61270;Laerm;47150;53.032;8.960;2023-01-24T15:08:33;38.70;37.14;39.92;;
61270;Laerm;47150;53.032;8.960;2023-01-24T15:11:31;38.71;37.33;40.06;;
61270;Laerm;47150;53.032;8.960;2023-01-24T15:14:03;38.70;37.50;39.83;;
61270;Laerm;47150;53.032;8.960;2023-01-24T15:16:35;38.71;37.31;40.03;;
61270;Laerm;47150;53.032;8.960;2023-01-24T15:19:09;38.71;37.22;39.93;;
61270;Laerm;47150;53.032;8.960;2023-01-24T15:21:44;38.71;37.35;40.05;;
61270;Laerm;47150;53.032;8.960;2023-01-24T15:26:44;38.72;37.37;39.85;;
61270;Laerm;47150;53.032;8.960;2023-01-24T15:29:40;38.72;37.39;40.00;;
61270;Laerm;47150;53.032;8.960;2023-01-24T15:35:21;38.72;37.14;40.12;;
61270;Laerm;47150;53.032;8.960;2023-01-24T15:38:21;38.72;37.51;39.82;;
61270;Laerm;47150;53.032;8.960;2023-01-24T15:43:48;38.72;37.31;39.99;;
61270;Laerm;47150;53.032;8.960;2023-01-24T15:49:42;38.73;37.17;40.06;;
61270;Laerm;47150;53.032;8.960;2023-01-24T15:52:21;38.72;37.38;40.01;;
61270;Laerm;47150;53.032;8.960;2023-01-24T15:54:58;38.72;37.34;39.85;;
61270;Laerm;47150;53.032;8.960;2023-01-24T15:57:29;38.73;37.34;39.80;;
61270;Laerm;47150;53.032;8.960;2023-01-24T15:59:59;38.72;37.43;40.00;;
61270;Laerm;47150;53.032;8.960;2023-01-24T16:02:26;38.72;37.36;39.79;;
61270;Laerm;47150;53.032;8.960;2023-01-24T16:04:52;38.73;37.34;39.96;;
61270;Laerm;47150;53.032;8.960;2023-01-24T16:07:18;38.74;37.35;40.05;;
61270;Laerm;47150;53.032;8.960;2023-01-24T16:09:48;38.73;37.32;40.07;;
61270;Laerm;47150;53.032;8.960;2023-01-24T16:12:17;38.73;37.43;39.93;;
61270;Laerm;47150;53.032;8.960;2023-01-24T16:14:55;38.73;37.47;39.84;;
61270;Laerm;47150;53.032;8.960;2023-01-24T16:17:22;38.72;36.90;40.07;;
61270;Laerm;47150;53.032;8.960;2023-01-24T16:19:50;38.73;37.42;40.04;;
61270;Laerm;47150;53.032;8.960;2023-01-24T16:22:15;38.73;37.36;39.89;;
61270;Laerm;47150;53.032;8.960;2023-01-24T16:24:41;38.71;37.32;39.86;;